createdAt,value
2022-08-22T00:01:46.442Z,99.90
2022-08-22T00:02:46.390Z,99.90
2022-08-22T00:02:55.898Z,99.90
2022-08-22T00:02:59.228Z,99.90
2022-08-22T00:02:59.456Z,99.90
2022-08-22T00:04:17.366Z,99.90
2022-08-22T00:07:08.681Z,99.90
2022-08-22T00:09:49.786Z,99.90
2022-08-22T00:12:50.899Z,99.90
2022-08-22T00:15:42.225Z,99.90
2022-08-22T00:18:32.776Z,99.90
2022-08-22T00:21:23.040Z,99.90
2022-08-22T00:24:26.440Z,99.90
2022-08-22T00:27:02.281Z,99.90
2022-08-22T00:29:56.060Z,99.90
2022-08-22T00:32:29.821Z,99.90
2022-08-22T00:35:24.120Z,99.90
2022-08-22T00:38:09.556Z,99.90
2022-08-22T00:40:39.741Z,99.90
2022-08-22T00:43:38.276Z,99.90
2022-08-22T00:47:00.196Z,99.90
2022-08-22T00:49:43.928Z,99.90
2022-08-22T00:52:46.261Z,99.90
2022-08-22T00:55:42.761Z,99.90
2022-08-22T00:58:31.541Z,99.90
2022-08-22T01:01:12.030Z,99.90
2022-08-22T01:03:47.075Z,99.90
2022-08-22T01:06:32.436Z,99.90
2022-08-22T01:09:22.976Z,99.90
2022-08-22T01:12:15.201Z,99.90
2022-08-22T01:14:51.675Z,99.90
2022-08-22T01:17:45.343Z,99.90
2022-08-22T01:20:32.576Z,99.90
2022-08-22T01:23:08.750Z,99.90
2022-08-22T01:25:54.940Z,99.90
2022-08-22T01:28:44.835Z,99.90
2022-08-22T01:31:54.660Z,99.90
2022-08-22T01:34:59.520Z,99.90
2022-08-22T01:37:45.682Z,99.90
2022-08-22T01:40:38.000Z,99.90
2022-08-22T01:43:59.972Z,99.90
2022-08-22T01:46:46.580Z,99.90
2022-08-22T01:49:31.944Z,99.90
2022-08-22T01:52:19.498Z,99.90
2022-08-22T01:54:56.500Z,99.90
2022-08-22T01:57:25.037Z,99.90
2022-08-22T01:59:59.280Z,99.90
2022-08-22T02:02:41.016Z,99.90
2022-08-22T02:05:23.162Z,99.90
2022-08-22T02:07:56.583Z,99.90
2022-08-22T02:11:02.643Z,99.90
2022-08-22T02:13:53.075Z,99.90
2022-08-22T02:16:41.035Z,99.90
2022-08-22T02:19:39.041Z,99.90
2022-08-22T02:22:26.593Z,99.90
2022-08-22T02:25:08.947Z,99.90
2022-08-22T02:27:47.319Z,99.90
2022-08-22T02:30:21.337Z,99.90
2022-08-22T02:33:05.867Z,99.90
2022-08-22T02:36:03.303Z,99.90
2022-08-22T02:38:56.259Z,99.90
2022-08-22T02:41:46.285Z,99.90
2022-08-22T02:44:25.796Z,99.90
2022-08-22T02:46:56.179Z,99.90
2022-08-22T02:49:29.583Z,99.90
2022-08-22T02:52:09.379Z,99.90
2022-08-22T02:54:47.782Z,99.90
2022-08-22T02:57:49.499Z,99.90
2022-08-22T03:00:27.659Z,99.90
2022-08-22T03:03:00.463Z,99.90
2022-08-22T03:05:42.359Z,99.90
2022-08-22T03:08:29.101Z,99.90
2022-08-22T03:11:18.177Z,99.90
2022-08-22T03:14:00.763Z,99.90
2022-08-22T03:16:53.007Z,99.90
2022-08-22T03:19:31.658Z,99.90
2022-08-22T03:22:07.564Z,99.90
2022-08-22T03:25:02.200Z,99.90
2022-08-22T03:27:36.169Z,99.90
2022-08-22T03:30:22.127Z,99.90
2022-08-22T03:32:55.034Z,99.90
2022-08-22T03:35:39.568Z,99.90
2022-08-22T03:38:32.157Z,99.90
2022-08-22T03:41:08.633Z,99.90
2022-08-22T03:43:44.739Z,99.90
2022-08-22T03:46:18.460Z,99.90
2022-08-22T03:49:06.549Z,99.90
2022-08-22T03:51:59.227Z,99.90
2022-08-22T03:55:24.609Z,99.90
2022-08-22T03:57:51.977Z,99.90
2022-08-22T04:00:48.054Z,99.90
2022-08-22T04:03:46.787Z,99.90
2022-08-22T04:06:23.267Z,99.90
2022-08-22T04:09:43.316Z,99.90
2022-08-22T04:12:58.835Z,99.90
2022-08-22T04:15:44.610Z,99.90
2022-08-22T04:18:15.035Z,99.90
2022-08-22T04:21:00.577Z,99.90
2022-08-22T04:23:40.418Z,99.90
2022-08-22T04:26:14.368Z,99.90
2022-08-22T04:29:27.517Z,99.90
2022-08-22T04:32:17.007Z,99.90
2022-08-22T04:35:09.914Z,99.90
2022-08-22T04:37:56.714Z,99.90
2022-08-22T04:40:35.783Z,99.90
2022-08-22T04:43:14.921Z,99.90
2022-08-22T04:45:59.609Z,99.90
2022-08-22T04:48:34.831Z,99.90
2022-08-22T04:51:23.534Z,99.90
2022-08-22T04:54:36.215Z,99.90
2022-08-22T04:57:15.725Z,99.90
2022-08-22T04:59:44.351Z,99.90
2022-08-22T05:02:20.638Z,99.90
2022-08-22T05:04:57.311Z,99.90
2022-08-22T05:07:33.912Z,99.90
2022-08-22T05:10:18.781Z,99.90
2022-08-22T05:12:53.750Z,99.90
2022-08-22T05:15:24.869Z,99.90
2022-08-22T05:17:59.159Z,99.90
2022-08-22T05:20:28.854Z,99.90
2022-08-22T05:23:05.833Z,99.90
2022-08-22T05:25:36.430Z,99.90
2022-08-22T05:28:16.035Z,99.90
2022-08-22T05:30:47.985Z,99.90
2022-08-22T05:33:27.252Z,99.90
2022-08-22T05:36:01.624Z,99.90
2022-08-22T05:38:32.651Z,99.90
2022-08-22T05:41:08.934Z,99.90
2022-08-22T05:43:41.650Z,99.90
2022-08-22T05:46:18.528Z,99.90
2022-08-22T05:48:57.839Z,99.90
2022-08-22T05:51:32.572Z,99.90
2022-08-22T05:54:13.982Z,99.90
2022-08-22T05:56:53.694Z,99.90
2022-08-22T05:59:31.176Z,99.90
2022-08-22T06:02:21.538Z,99.90
2022-08-22T06:05:12.217Z,99.90
2022-08-22T06:07:47.095Z,99.90
2022-08-22T06:10:29.421Z,99.90
2022-08-22T06:13:05.720Z,99.90
2022-08-22T06:15:55.039Z,99.90
2022-08-22T06:18:26.735Z,99.90
2022-08-22T06:21:07.066Z,99.90
2022-08-22T06:23:51.225Z,99.90
2022-08-22T06:26:20.887Z,99.90
2022-08-22T06:28:55.208Z,99.90
2022-08-22T06:31:49.380Z,99.90
2022-08-22T06:34:24.689Z,99.90
2022-08-22T06:36:55.718Z,99.90
2022-08-22T06:39:24.799Z,99.90
2022-08-22T06:42:16.677Z,99.90
2022-08-22T06:44:50.785Z,99.90
2022-08-22T06:47:26.495Z,99.90
2022-08-22T06:50:02.339Z,99.90
2022-08-22T06:52:33.386Z,99.90
2022-08-22T06:55:06.227Z,99.90
2022-08-22T06:57:45.263Z,99.90
2022-08-22T07:00:16.089Z,99.90
2022-08-22T07:02:46.900Z,99.90
2022-08-22T07:05:24.665Z,99.90
2022-08-22T07:07:53.205Z,99.90
2022-08-22T07:10:22.467Z,99.90
2022-08-22T07:12:53.883Z,99.90
2022-08-22T07:15:37.364Z,99.90
2022-08-22T07:18:31.817Z,99.90
2022-08-22T07:21:08.131Z,99.90
2022-08-22T07:23:41.277Z,99.90
2022-08-22T07:26:28.602Z,99.90
2022-08-22T07:29:01.787Z,99.90
2022-08-22T07:31:38.932Z,99.90
2022-08-22T07:34:29.195Z,99.90
2022-08-22T07:36:56.430Z,99.90
2022-08-22T07:39:46.324Z,99.90
2022-08-22T07:42:19.032Z,99.90
2022-08-22T07:45:01.328Z,99.90
2022-08-22T07:48:04.698Z,99.90
2022-08-22T07:50:37.372Z,99.90
2022-08-22T07:53:44.784Z,99.90
2022-08-22T07:56:46.714Z,99.90
2022-08-22T07:59:18.361Z,99.90
2022-08-22T08:01:50.340Z,99.90
2022-08-22T08:04:25.100Z,99.90
2022-08-22T08:06:55.510Z,99.90
2022-08-22T08:09:23.936Z,99.90
2022-08-22T08:11:54.514Z,99.90
2022-08-22T08:14:24.039Z,99.90
2022-08-22T08:17:23.930Z,99.90
2022-08-22T08:19:52.214Z,99.90
2022-08-22T08:22:26.170Z,99.90
2022-08-22T08:24:57.529Z,99.90
2022-08-22T08:27:50.192Z,99.90
2022-08-22T08:30:21.524Z,99.90
2022-08-22T08:32:59.573Z,99.90
2022-08-22T08:36:02.047Z,99.90
2022-08-22T08:38:44.095Z,99.90
2022-08-22T08:41:22.120Z,99.90
2022-08-22T08:44:15.163Z,99.90
2022-08-22T08:47:12.030Z,99.90
2022-08-22T08:49:45.074Z,99.90
2022-08-22T08:52:42.020Z,99.90
2022-08-22T08:55:21.971Z,99.90
2022-08-22T08:58:10.305Z,99.90
2022-08-22T09:01:31.268Z,99.90
2022-08-22T09:04:32.340Z,99.90
2022-08-22T09:07:25.881Z,99.90
2022-08-22T09:10:31.484Z,99.90
2022-08-22T09:13:11.881Z,99.90
2022-08-22T09:15:58.556Z,99.90
2022-08-22T09:18:32.313Z,99.90
2022-08-22T09:21:08.882Z,99.90
2022-08-22T09:24:14.069Z,99.90
2022-08-22T09:27:01.625Z,99.90
2022-08-22T09:29:54.481Z,99.90
2022-08-22T09:32:28.768Z,99.90
2022-08-22T09:35:14.880Z,99.90
2022-08-22T09:38:14.987Z,99.90
2022-08-22T09:40:56.164Z,99.90
2022-08-22T09:43:39.583Z,99.90
2022-08-22T09:46:31.413Z,99.90
2022-08-22T09:49:17.337Z,99.90
2022-08-22T09:52:33.188Z,99.90
2022-08-22T09:55:25.211Z,99.90
2022-08-22T09:58:19.036Z,99.90
2022-08-22T10:01:19.388Z,99.90
2022-08-22T10:04:04.747Z,99.90
2022-08-22T10:07:03.159Z,99.90
2022-08-22T10:09:46.254Z,99.90
2022-08-22T10:12:24.760Z,99.90
2022-08-22T10:15:16.355Z,99.90
2022-08-22T10:18:20.914Z,99.90
2022-08-22T10:21:03.462Z,99.90
2022-08-22T10:23:46.012Z,99.90
2022-08-22T10:26:25.578Z,99.90
2022-08-22T10:29:35.159Z,99.90
2022-08-22T10:32:27.635Z,99.90
2022-08-22T10:35:01.685Z,99.90
2022-08-22T10:37:46.081Z,99.90
2022-08-22T10:40:16.827Z,99.90
2022-08-22T10:43:35.054Z,99.90
2022-08-22T10:46:14.445Z,99.90
2022-08-22T10:48:51.069Z,99.90
2022-08-22T10:51:42.185Z,99.90
2022-08-22T10:54:42.805Z,99.90
2022-08-22T10:57:31.481Z,99.90
2022-08-22T11:00:22.689Z,99.90
2022-08-22T11:03:21.799Z,99.90
2022-08-22T11:05:54.495Z,99.90
2022-08-22T11:08:46.208Z,99.90
2022-08-22T11:11:32.629Z,99.90
2022-08-22T11:14:24.600Z,99.90
2022-08-22T11:17:11.988Z,99.90
2022-08-22T11:20:09.154Z,99.90
2022-08-22T11:22:55.764Z,99.90
2022-08-22T11:25:58.466Z,99.90
2022-08-22T11:28:44.530Z,99.90
2022-08-22T11:31:39.688Z,99.40
2022-08-22T11:34:26.158Z,98.30
2022-08-22T11:36:56.888Z,98.20
2022-08-22T11:39:45.507Z,97.90
2022-08-22T11:42:31.546Z,97.40
2022-08-22T11:45:05.822Z,97.60
2022-08-22T11:47:40.576Z,97.50
2022-08-22T11:50:13.790Z,95.70
2022-08-22T11:52:44.502Z,96.00
2022-08-22T11:55:21.831Z,93.20
2022-08-22T11:57:55.021Z,91.90
2022-08-22T12:00:26.874Z,92.30
2022-08-22T12:03:12.880Z,93.40
2022-08-22T12:05:45.324Z,93.20
2022-08-22T12:08:30.381Z,93.70
2022-08-22T12:11:15.126Z,94.00
2022-08-22T12:14:06.530Z,95.30
2022-08-22T12:17:01.497Z,94.50
2022-08-22T12:20:15.076Z,94.60
2022-08-22T12:23:10.590Z,92.50
2022-08-22T12:26:05.155Z,90.60
2022-08-22T12:29:15.475Z,83.30
2022-08-22T12:32:04.716Z,84.60
2022-08-22T12:34:42.406Z,87.30
2022-08-22T12:37:21.640Z,88.90
2022-08-22T12:40:02.176Z,91.50
2022-08-22T12:43:04.383Z,93.40
2022-08-22T12:46:13.072Z,94.90
2022-08-22T12:48:55.430Z,96.60
2022-08-22T12:51:43.250Z,96.40
2022-08-22T12:54:26.950Z,95.70
2022-08-22T12:56:57.345Z,96.40
2022-08-22T12:59:28.559Z,96.50
2022-08-22T13:02:01.587Z,97.10
2022-08-22T13:04:34.243Z,97.50
2022-08-22T13:07:30.955Z,97.80
2022-08-22T13:10:17.358Z,98.00
2022-08-22T13:12:48.801Z,97.80
2022-08-22T13:15:28.808Z,98.70
2022-08-22T13:18:13.229Z,98.70
2022-08-22T13:20:50.689Z,99.10
2022-08-22T13:23:29.610Z,98.50
2022-08-22T13:26:32.026Z,97.60
2022-08-22T13:29:39.404Z,98.40
2022-08-22T13:32:05.042Z,98.10
2022-08-22T13:34:39.635Z,97.70
2022-08-22T13:37:13.516Z,98.20
2022-08-22T13:39:46.494Z,97.60
2022-08-22T13:42:27.872Z,98.10
2022-08-22T13:45:02.711Z,97.30
2022-08-22T13:47:34.601Z,97.80
2022-08-22T13:50:20.020Z,97.40
2022-08-22T13:52:55.656Z,96.80
2022-08-22T13:55:31.486Z,96.60
2022-08-22T13:58:17.462Z,96.60
2022-08-22T14:01:25.522Z,96.40
2022-08-22T14:04:28.318Z,97.00
2022-08-22T14:07:02.301Z,96.50
2022-08-22T14:09:51.325Z,96.50
2022-08-22T14:12:25.330Z,96.60
2022-08-22T14:15:08.047Z,96.40
2022-08-22T14:17:44.010Z,95.50
2022-08-22T14:20:32.229Z,94.70
2022-08-22T14:23:11.777Z,93.00
2022-08-22T14:25:43.406Z,91.90
2022-08-22T14:28:32.396Z,91.60
2022-08-22T14:31:23.304Z,92.40
2022-08-22T14:34:12.501Z,93.50
2022-08-22T14:36:42.948Z,93.70
2022-08-22T14:39:28.700Z,93.50
2022-08-22T14:42:17.946Z,93.60
2022-08-22T14:44:59.492Z,94.60
2022-08-22T14:47:54.924Z,94.50
2022-08-22T14:50:43.715Z,96.00
2022-08-22T14:53:18.770Z,95.70
2022-08-22T14:55:58.287Z,95.40
2022-08-22T14:58:27.725Z,94.60
2022-08-22T15:00:57.990Z,94.80
2022-08-22T15:03:35.259Z,94.40
2022-08-22T15:06:12.035Z,93.30
2022-08-22T15:08:42.285Z,92.80
2022-08-22T15:11:22.245Z,92.00
2022-08-22T15:13:55.907Z,91.20
2022-08-22T15:16:29.943Z,90.90
2022-08-22T15:18:59.579Z,91.60
2022-08-22T15:21:33.225Z,92.60
2022-08-22T15:24:14.229Z,93.00
2022-08-22T15:26:55.552Z,92.60
2022-08-22T15:29:26.799Z,93.50
2022-08-22T15:32:01.466Z,93.10
2022-08-22T15:34:39.667Z,93.50
2022-08-22T15:37:19.979Z,93.70
2022-08-22T15:40:15.086Z,94.10
2022-08-22T15:42:51.275Z,94.40
2022-08-22T15:45:28.880Z,94.10
2022-08-22T15:47:57.242Z,95.00
2022-08-22T15:50:39.794Z,94.80
2022-08-22T15:53:19.956Z,95.10
2022-08-22T15:56:05.487Z,94.30
2022-08-22T15:58:37.505Z,94.30
2022-08-22T16:01:19.037Z,94.50
2022-08-22T16:04:04.795Z,94.30
2022-08-22T16:06:53.159Z,94.50
2022-08-22T16:09:36.649Z,95.10
2022-08-22T16:12:33.380Z,95.30
2022-08-22T16:15:05.545Z,95.60
2022-08-22T16:17:42.779Z,96.00
2022-08-22T16:20:15.887Z,96.80
2022-08-22T16:22:58.987Z,97.40
2022-08-22T16:25:45.153Z,98.10
2022-08-22T16:28:57.909Z,98.60
2022-08-22T16:31:27.605Z,99.00
2022-08-22T16:34:18.030Z,99.70
2022-08-22T16:36:55.372Z,99.90
2022-08-22T16:39:22.645Z,99.90
2022-08-22T16:41:54.512Z,99.90
2022-08-22T16:44:30.783Z,99.90
2022-08-22T16:47:30.179Z,99.90
2022-08-22T16:50:09.744Z,99.90
2022-08-22T16:52:54.101Z,99.90
2022-08-22T16:55:30.435Z,99.90
2022-08-22T16:58:35.834Z,99.90
2022-08-22T17:01:30.570Z,99.90
2022-08-22T17:04:10.525Z,99.90
2022-08-22T17:07:17.781Z,99.90
2022-08-22T17:09:45.089Z,99.90
2022-08-22T17:12:33.795Z,99.90
2022-08-22T17:15:21.619Z,99.90
2022-08-22T17:18:34.185Z,99.90
2022-08-22T17:21:18.975Z,99.90
2022-08-22T17:24:32.026Z,99.90
2022-08-22T17:27:31.575Z,99.90
2022-08-22T17:30:20.286Z,99.90
2022-08-22T17:33:02.849Z,99.90
2022-08-22T17:36:00.755Z,99.90
2022-08-22T17:39:29.945Z,99.90
2022-08-22T17:42:21.109Z,99.90
2022-08-22T17:45:36.125Z,99.90
2022-08-22T17:48:08.080Z,99.90
2022-08-22T17:50:58.335Z,99.90
2022-08-22T17:53:49.630Z,99.90
2022-08-22T17:56:34.678Z,99.90
2022-08-22T17:59:23.659Z,99.90
2022-08-22T18:02:13.829Z,99.90
2022-08-22T18:04:48.094Z,99.90
2022-08-22T18:07:15.418Z,99.90
2022-08-22T18:09:56.373Z,99.90
2022-08-22T18:12:45.618Z,99.90
2022-08-22T18:15:30.824Z,99.90
2022-08-22T18:18:19.335Z,99.90
2022-08-22T18:21:18.817Z,99.90
2022-08-22T18:23:52.356Z,99.90
2022-08-22T18:26:31.430Z,99.90
2022-08-22T18:29:19.193Z,99.90
2022-08-22T18:32:01.718Z,99.90
2022-08-22T18:34:40.667Z,99.90
2022-08-22T18:37:35.978Z,99.90
2022-08-22T18:40:07.167Z,99.90
2022-08-22T18:42:43.407Z,99.90
2022-08-22T18:45:48.806Z,99.90
2022-08-22T18:48:34.677Z,99.90
2022-08-22T18:51:26.115Z,99.90
2022-08-22T18:54:35.035Z,99.90
2022-08-22T18:57:30.966Z,99.90
2022-08-22T19:00:16.832Z,99.90
2022-08-22T19:03:03.829Z,99.90
2022-08-22T19:05:50.031Z,99.90
2022-08-22T19:08:36.775Z,99.90
2022-08-22T19:11:16.015Z,99.90
2022-08-22T19:14:17.496Z,99.90
2022-08-22T19:17:06.242Z,99.90
2022-08-22T19:20:00.795Z,99.90
2022-08-22T19:22:36.116Z,99.90
2022-08-22T19:25:15.639Z,99.90
2022-08-22T19:28:10.666Z,99.90
2022-08-22T19:30:43.196Z,99.90
2022-08-22T19:33:40.945Z,99.90
2022-08-22T19:36:30.041Z,99.90
2022-08-22T19:39:42.106Z,99.90
2022-08-22T19:42:28.046Z,99.90
2022-08-22T19:44:55.682Z,99.90
2022-08-22T19:47:27.024Z,99.90
2022-08-22T19:50:00.632Z,99.90
2022-08-22T19:52:44.995Z,99.90
2022-08-22T19:55:20.906Z,99.90
2022-08-22T19:57:55.498Z,99.90
2022-08-22T20:00:24.985Z,99.90
2022-08-22T20:03:17.453Z,99.90
2022-08-22T20:06:33.565Z,99.90
2022-08-22T20:09:08.172Z,99.90
2022-08-22T20:12:00.020Z,99.90
2022-08-22T20:14:31.007Z,99.90
2022-08-22T20:17:04.289Z,99.90
2022-08-22T20:22:42.732Z,99.90
2022-08-22T20:25:41.628Z,99.90
2022-08-22T20:28:08.833Z,99.90
2022-08-22T20:30:43.739Z,99.90
2022-08-22T20:33:20.973Z,99.90
2022-08-22T20:35:54.553Z,99.90
2022-08-22T20:38:32.674Z,99.90
2022-08-22T20:41:18.607Z,99.90
2022-08-22T20:43:52.293Z,99.90
2022-08-22T20:46:58.046Z,99.90
2022-08-22T20:49:46.389Z,99.90
2022-08-22T20:52:35.754Z,99.90
2022-08-22T20:55:19.689Z,99.90
2022-08-22T20:57:57.450Z,99.90
2022-08-22T21:00:47.850Z,99.90
2022-08-22T21:03:34.993Z,99.90
2022-08-22T21:06:18.753Z,99.90
2022-08-22T21:08:46.832Z,99.90
2022-08-22T21:11:40.994Z,99.90
2022-08-22T21:14:24.773Z,99.90
2022-08-22T21:16:52.593Z,99.90
2022-08-22T21:19:25.833Z,99.90
2022-08-22T21:21:53.756Z,99.90
2022-08-22T21:24:21.212Z,99.90
2022-08-22T21:26:56.353Z,99.90
2022-08-22T21:29:32.410Z,99.90
2022-08-22T21:32:11.888Z,99.90
2022-08-22T21:34:45.712Z,99.90
2022-08-22T21:37:17.189Z,99.90
2022-08-22T21:39:51.429Z,99.90
2022-08-22T21:42:28.475Z,99.90
2022-08-22T21:45:00.869Z,99.90
2022-08-22T21:47:30.606Z,99.90
2022-08-22T21:50:19.252Z,99.90
2022-08-22T21:52:55.588Z,99.90
2022-08-22T21:55:39.737Z,99.90
2022-08-22T21:58:32.603Z,99.90
2022-08-22T22:01:31.446Z,99.90
2022-08-22T22:03:59.806Z,99.90
2022-08-22T22:06:27.573Z,99.90
2022-08-22T22:08:55.494Z,99.90
2022-08-22T22:11:23.108Z,99.90
2022-08-22T22:13:50.507Z,99.90
2022-08-22T22:16:25.040Z,99.90
2022-08-22T22:18:52.445Z,99.90
2022-08-22T22:21:19.972Z,99.90
2022-08-22T22:23:47.552Z,99.90
2022-08-22T22:26:15.286Z,99.90
2022-08-22T22:28:50.431Z,99.90
2022-08-22T22:31:18.709Z,99.90
2022-08-22T22:33:46.523Z,99.90
2022-08-22T22:36:20.771Z,99.90
2022-08-22T22:38:51.862Z,99.90
2022-08-22T22:41:21.448Z,99.90
2022-08-22T22:43:48.832Z,99.90
2022-08-22T22:46:16.196Z,99.90
2022-08-22T22:48:43.586Z,99.90
2022-08-22T22:51:13.094Z,99.90
2022-08-22T22:53:42.892Z,99.90
2022-08-22T22:56:14.238Z,99.90
2022-08-22T22:58:43.995Z,99.90
2022-08-22T23:01:21.553Z,99.90
2022-08-22T23:03:53.755Z,99.90
2022-08-22T23:06:23.822Z,99.90
2022-08-22T23:08:51.451Z,99.90
2022-08-22T23:11:24.835Z,99.90
2022-08-22T23:13:52.553Z,99.90
2022-08-22T23:16:28.938Z,99.90
2022-08-22T23:18:56.831Z,99.90
2022-08-22T23:21:30.035Z,99.90
2022-08-22T23:23:59.142Z,99.90
2022-08-22T23:26:27.316Z,99.90
2022-08-22T23:28:55.001Z,99.90
2022-08-22T23:31:38.564Z,99.90
2022-08-22T23:34:11.780Z,99.90
2022-08-22T23:36:41.410Z,99.90
2022-08-22T23:39:10.032Z,99.90
2022-08-22T23:41:37.936Z,99.90
2022-08-22T23:44:07.365Z,99.90
2022-08-22T23:46:36.676Z,99.90
2022-08-22T23:49:06.589Z,99.90
2022-08-22T23:51:34.199Z,99.90
2022-08-22T23:54:02.991Z,99.90
2022-08-22T23:56:57.299Z,99.90
2022-08-22T23:59:30.551Z,99.90
